FDX9900 KLBF-KAFW
Flight info
| Callsign | FDX9900 |
|---|---|
| Flight time | 1h 8m |
| Altitude | 35000 |
| Route | BRWRY PENUT IFI FAWNT WESAT3 |
| Aircraft | A306/H-SDE3FGHIRWY/LB1 |
Departure
| Time | 2026-05-04 15:10 |
|---|---|
| Airport | North Platte Regional Airport Lee Bird Field (KLBF) |
Arrival
| Time | 2026-05-04 16:19 |
|---|---|
| Airport | Perot Field/Fort Worth Alliance Airport (KAFW) |
| Time | Latitude | Longitude | Altitude | Speed | Heading |
|---|---|---|---|---|---|
| 2026-05-04 14:55 | 41.13143 | -100.69576 | 2791 ft | 0 kts | 274° |
| 2026-05-04 15:04 | 41.13143 | -100.69574 | 2791 ft | 2 kts | 276° |
| 2026-05-04 15:04 | 41.13151 | -100.69579 | 2791 ft | 4 kts | 313° |
| 2026-05-04 15:05 | 41.13143 | -100.69562 | 2783 ft | 1 kts | 270° |
| 2026-05-04 15:05 | 41.13150 | -100.69581 | 2791 ft | 4 kts | 306° |
| 2026-05-04 15:05 | 41.13138 | -100.69561 | 2791 ft | 4 kts | 291° |
| 2026-05-04 15:05 | 41.13118 | -100.69568 | 2786 ft | 4 kts | 49° |
| 2026-05-04 15:06 | 41.13109 | -100.69583 | 2783 ft | 4 kts | 72° |
| 2026-05-04 15:06 | 41.13110 | -100.69612 | 2783 ft | 4 kts | 107° |
| 2026-05-04 15:06 | 41.13113 | -100.69629 | 2783 ft | 0 kts | 90° |
| 2026-05-04 15:07 | 41.13113 | -100.69625 | 2783 ft | 3 kts | 90° |
| 2026-05-04 15:07 | 41.13113 | -100.69546 | 2791 ft | 14 kts | 90° |
| 2026-05-04 15:08 | 41.13112 | -100.69393 | 2791 ft | 11 kts | 92° |
| 2026-05-04 15:08 | 41.13106 | -100.69251 | 2792 ft | 20 kts | 90° |
| 2026-05-04 15:08 | 41.13149 | -100.69067 | 2784 ft | 19 kts | 30° |
| 2026-05-04 15:08 | 41.13203 | -100.68984 | 2791 ft | 11 kts | 97° |
| 2026-05-04 15:09 | 41.13179 | -100.68930 | 2790 ft | 0 kts | 125° |
| 2026-05-04 15:10 | 41.12635 | -100.67952 | 2787 ft | 146 kts | 126° |
| 2026-05-04 15:10 | 41.11908 | -100.66600 | 3067 ft | 204 kts | 127° |
| 2026-05-04 15:10 | 41.09367 | -100.63969 | 4804 ft | 267 kts | 158° |
| 2026-05-04 15:11 | 41.07518 | -100.63359 | 5554 ft | 281 kts | 173° |
| 2026-05-04 15:11 | 41.05537 | -100.63196 | 6505 ft | 289 kts | 182° |
| 2026-05-04 15:11 | 41.03518 | -100.63313 | 7489 ft | 292 kts | 186° |
| 2026-05-04 15:11 | 41.01482 | -100.63554 | 8553 ft | 295 kts | 188° |
| 2026-05-04 15:12 | 40.99433 | -100.63827 | 9651 ft | 298 kts | 189° |
| 2026-05-04 15:12 | 40.97388 | -100.64095 | 10601 ft | 300 kts | 189° |
| 2026-05-04 15:12 | 40.95267 | -100.64346 | 11537 ft | 304 kts | 188° |
| 2026-05-04 15:12 | 40.93154 | -100.64564 | 12488 ft | 306 kts | 188° |
| 2026-05-04 15:13 | 40.91015 | -100.64768 | 13411 ft | 310 kts | 188° |
| 2026-05-04 15:13 | 40.88852 | -100.64964 | 14209 ft | 313 kts | 188° |
| 2026-05-04 15:13 | 40.86694 | -100.65155 | 14961 ft | 317 kts | 188° |
| 2026-05-04 15:13 | 40.84481 | -100.65348 | 15719 ft | 321 kts | 188° |
| 2026-05-04 15:14 | 40.82245 | -100.65546 | 16473 ft | 324 kts | 188° |
| 2026-05-04 15:14 | 40.79967 | -100.65600 | 17206 ft | 331 kts | 181° |
| 2026-05-04 15:14 | 40.77661 | -100.65152 | 17934 ft | 340 kts | 171° |
| 2026-05-04 15:14 | 40.75362 | -100.64324 | 18576 ft | 345 kts | 167° |
| 2026-05-04 15:15 | 40.73070 | -100.63319 | 19211 ft | 350 kts | 165° |
| 2026-05-04 15:15 | 40.70774 | -100.62212 | 19845 ft | 353 kts | 164° |
| 2026-05-04 15:15 | 40.68463 | -100.61057 | 20477 ft | 357 kts | 163° |
| 2026-05-04 15:16 | 40.63782 | -100.58711 | 21734 ft | 363 kts | 164° |
| 2026-05-04 15:16 | 40.61406 | -100.57541 | 22356 ft | 366 kts | 164° |
| 2026-05-04 15:16 | 40.56593 | -100.55205 | 23519 ft | 372 kts | 165° |
| 2026-05-04 15:17 | 40.54145 | -100.54027 | 24009 ft | 376 kts | 165° |
| 2026-05-04 15:17 | 40.49183 | -100.51644 | 24969 ft | 383 kts | 165° |
| 2026-05-04 15:17 | 40.46676 | -100.50441 | 25466 ft | 385 kts | 165° |
| 2026-05-04 15:18 | 40.44159 | -100.49232 | 26062 ft | 385 kts | 165° |
| 2026-05-04 15:18 | 40.41646 | -100.48024 | 26649 ft | 384 kts | 166° |
| 2026-05-04 15:18 | 40.39139 | -100.46819 | 27236 ft | 383 kts | 166° |
| 2026-05-04 15:19 | 40.34125 | -100.44416 | 28188 ft | 388 kts | 167° |
| 2026-05-04 15:19 | 40.31549 | -100.43191 | 28399 ft | 398 kts | 167° |
| 2026-05-04 15:19 | 40.26215 | -100.40660 | 28831 ft | 417 kts | 166° |
| 2026-05-04 15:20 | 40.23455 | -100.39347 | 29045 ft | 426 kts | 166° |
| 2026-05-04 15:20 | 40.20644 | -100.38008 | 29248 ft | 435 kts | 166° |
| 2026-05-04 15:20 | 40.17775 | -100.36642 | 29453 ft | 443 kts | 166° |
| 2026-05-04 15:20 | 40.14849 | -100.35247 | 29640 ft | 451 kts | 166° |
| 2026-05-04 15:21 | 40.11880 | -100.33834 | 29827 ft | 458 kts | 166° |
| 2026-05-04 15:21 | 40.08856 | -100.32395 | 29977 ft | 465 kts | 166° |
| 2026-05-04 15:21 | 40.02686 | -100.29463 | 30259 ft | 478 kts | 166° |
| 2026-05-04 15:22 | 39.99581 | -100.27991 | 30410 ft | 484 kts | 166° |
| 2026-05-04 15:22 | 39.96398 | -100.26483 | 30542 ft | 490 kts | 166° |
| 2026-05-04 15:22 | 39.89925 | -100.23423 | 30793 ft | 500 kts | 166° |
| 2026-05-04 15:23 | 39.86640 | -100.21872 | 30944 ft | 504 kts | 166° |
| 2026-05-04 15:23 | 39.83303 | -100.20297 | 31207 ft | 505 kts | 166° |
| 2026-05-04 15:23 | 39.80045 | -100.18759 | 31521 ft | 504 kts | 166° |
| 2026-05-04 15:23 | 39.76707 | -100.17184 | 31848 ft | 504 kts | 166° |
| 2026-05-04 15:24 | 39.70161 | -100.14106 | 32472 ft | 503 kts | 166° |
| 2026-05-04 15:24 | 39.63585 | -100.11023 | 33138 ft | 502 kts | 166° |
| 2026-05-04 15:25 | 39.60260 | -100.09467 | 33439 ft | 502 kts | 166° |
| 2026-05-04 15:25 | 39.57020 | -100.07953 | 33734 ft | 502 kts | 167° |
| 2026-05-04 15:25 | 39.53732 | -100.06419 | 33978 ft | 502 kts | 167° |
| 2026-05-04 15:26 | 39.47145 | -100.03352 | 34400 ft | 504 kts | 167° |
| 2026-05-04 15:26 | 39.43840 | -100.01815 | 34630 ft | 505 kts | 167° |
| 2026-05-04 15:26 | 39.37234 | -99.98742 | 34776 ft | 502 kts | 168° |
| 2026-05-04 15:27 | 39.27397 | -99.94176 | 34766 ft | 501 kts | 168° |
| 2026-05-04 15:28 | 39.17531 | -99.89621 | 34748 ft | 503 kts | 168° |
| 2026-05-04 15:29 | 39.07637 | -99.85062 | 34733 ft | 504 kts | 168° |
| 2026-05-04 15:30 | 38.84417 | -99.74411 | 34722 ft | 508 kts | 168° |
| 2026-05-04 15:31 | 38.74411 | -99.69845 | 34715 ft | 510 kts | 168° |
| 2026-05-04 15:32 | 38.57769 | -99.61687 | 34726 ft | 518 kts | 163° |
| 2026-05-04 15:34 | 38.41443 | -99.51826 | 34713 ft | 522 kts | 162° |
| 2026-05-04 15:34 | 38.31601 | -99.45882 | 34718 ft | 523 kts | 162° |
| 2026-05-04 15:35 | 38.21715 | -99.39947 | 34727 ft | 524 kts | 163° |
| 2026-05-04 15:36 | 38.11821 | -99.34025 | 34725 ft | 525 kts | 163° |
| 2026-05-04 15:36 | 38.05207 | -99.30076 | 34724 ft | 525 kts | 163° |
| 2026-05-04 15:37 | 37.98580 | -99.26129 | 34722 ft | 526 kts | 163° |
| 2026-05-04 15:37 | 37.91952 | -99.22188 | 34713 ft | 527 kts | 163° |
| 2026-05-04 15:38 | 37.85307 | -99.18244 | 34704 ft | 528 kts | 163° |
| 2026-05-04 15:38 | 37.78663 | -99.14308 | 34709 ft | 528 kts | 163° |
| 2026-05-04 15:39 | 37.72004 | -99.10371 | 34717 ft | 529 kts | 163° |
| 2026-05-04 15:40 | 37.61999 | -99.04472 | 34725 ft | 530 kts | 163° |
| 2026-05-04 15:40 | 37.55309 | -99.00536 | 34724 ft | 530 kts | 163° |
| 2026-05-04 15:41 | 37.48626 | -98.96613 | 34721 ft | 531 kts | 163° |
| 2026-05-04 15:41 | 37.41918 | -98.92685 | 34712 ft | 531 kts | 163° |
| 2026-05-04 15:42 | 37.35210 | -98.88761 | 34703 ft | 532 kts | 163° |
| 2026-05-04 15:42 | 37.28488 | -98.84839 | 34703 ft | 533 kts | 163° |
| 2026-05-04 15:43 | 37.21800 | -98.80944 | 34704 ft | 533 kts | 163° |
| 2026-05-04 15:43 | 37.16156 | -98.77662 | 34705 ft | 534 kts | 163° |
| 2026-05-04 15:44 | 37.09403 | -98.73745 | 34713 ft | 535 kts | 164° |
| 2026-05-04 15:44 | 37.02642 | -98.69830 | 34724 ft | 536 kts | 164° |
| 2026-05-04 15:45 | 36.95874 | -98.65918 | 34743 ft | 537 kts | 164° |
| 2026-05-04 15:45 | 36.89091 | -98.62006 | 34749 ft | 538 kts | 164° |
| 2026-05-04 15:46 | 36.82286 | -98.58087 | 34755 ft | 539 kts | 164° |
| 2026-05-04 15:46 | 36.75473 | -98.54173 | 34754 ft | 539 kts | 164° |
| 2026-05-04 15:47 | 36.68651 | -98.50262 | 34746 ft | 540 kts | 164° |
| 2026-05-04 15:47 | 36.61815 | -98.46349 | 34737 ft | 541 kts | 164° |
| 2026-05-04 15:48 | 36.54962 | -98.42434 | 34732 ft | 542 kts | 164° |
| 2026-05-04 15:48 | 36.44709 | -98.36593 | 34729 ft | 544 kts | 164° |
| 2026-05-04 15:49 | 36.37824 | -98.32679 | 34735 ft | 544 kts | 165° |
| 2026-05-04 15:49 | 36.30938 | -98.28771 | 34743 ft | 545 kts | 165° |
| 2026-05-04 15:50 | 36.24027 | -98.24859 | 34742 ft | 546 kts | 165° |
| 2026-05-04 15:50 | 36.17119 | -98.20956 | 34756 ft | 546 kts | 165° |
| 2026-05-04 15:51 | 36.10194 | -98.17049 | 34768 ft | 547 kts | 165° |
| 2026-05-04 15:51 | 36.03278 | -98.13155 | 34776 ft | 547 kts | 165° |
| 2026-05-04 15:52 | 35.96338 | -98.09255 | 34779 ft | 547 kts | 165° |
| 2026-05-04 15:52 | 35.89400 | -98.05365 | 34778 ft | 548 kts | 165° |
| 2026-05-04 15:53 | 35.82456 | -98.01493 | 34775 ft | 546 kts | 167° |
| 2026-05-04 15:53 | 35.78900 | -98.00080 | 34787 ft | 531 kts | 176° |
| 2026-05-04 15:53 | 35.75328 | -97.98965 | 34788 ft | 530 kts | 178° |
| 2026-05-04 15:54 | 35.68158 | -97.96970 | 34811 ft | 528 kts | 179° |
| 2026-05-04 15:54 | 35.60976 | -97.95074 | 34828 ft | 528 kts | 179° |
| 2026-05-04 15:55 | 35.53793 | -97.93170 | 34837 ft | 528 kts | 179° |
| 2026-05-04 15:55 | 35.46604 | -97.91245 | 34838 ft | 529 kts | 179° |
| 2026-05-04 15:56 | 35.39427 | -97.89317 | 34828 ft | 529 kts | 179° |
| 2026-05-04 15:56 | 35.32215 | -97.87382 | 34824 ft | 529 kts | 179° |
| 2026-05-04 15:57 | 35.25017 | -97.85455 | 34823 ft | 529 kts | 179° |
| 2026-05-04 15:57 | 35.17826 | -97.83534 | 34834 ft | 529 kts | 179° |
| 2026-05-04 15:58 | 35.10624 | -97.81615 | 34831 ft | 530 kts | 179° |
| 2026-05-04 15:58 | 35.03471 | -97.79712 | 34837 ft | 529 kts | 179° |
| 2026-05-04 15:59 | 34.96234 | -97.77791 | 34839 ft | 529 kts | 179° |
| 2026-05-04 15:59 | 34.89028 | -97.75880 | 34844 ft | 529 kts | 180° |
| 2026-05-04 16:00 | 34.81845 | -97.73980 | 34851 ft | 529 kts | 180° |
| 2026-05-04 16:00 | 34.74697 | -97.72090 | 34860 ft | 529 kts | 180° |
| 2026-05-04 16:01 | 34.67510 | -97.70195 | 34875 ft | 529 kts | 180° |
| 2026-05-04 16:01 | 34.60309 | -97.68301 | 34882 ft | 529 kts | 180° |
| 2026-05-04 16:02 | 34.53074 | -97.66398 | 34886 ft | 528 kts | 180° |
| 2026-05-04 16:03 | 34.42285 | -97.63571 | 34889 ft | 529 kts | 180° |
| 2026-05-04 16:03 | 34.38738 | -97.62872 | 34878 ft | 515 kts | 187° |
| 2026-05-04 16:03 | 34.35217 | -97.62775 | 34891 ft | 500 kts | 195° |
| 2026-05-04 16:04 | 34.28338 | -97.63337 | 34888 ft | 495 kts | 198° |
| 2026-05-04 16:04 | 34.21490 | -97.64011 | 34651 ft | 490 kts | 198° |
| 2026-05-04 16:04 | 34.18098 | -97.64345 | 33944 ft | 488 kts | 198° |
| 2026-05-04 16:05 | 34.14726 | -97.64680 | 33232 ft | 485 kts | 198° |
| 2026-05-04 16:05 | 34.11375 | -97.65013 | 32517 ft | 482 kts | 197° |
| 2026-05-04 16:05 | 34.04744 | -97.65669 | 31232 ft | 474 kts | 196° |
| 2026-05-04 16:06 | 34.01474 | -97.65992 | 30649 ft | 470 kts | 195° |
| 2026-05-04 16:06 | 33.92874 | -97.66841 | 29014 ft | 458 kts | 194° |
| 2026-05-04 16:07 | 33.88698 | -97.67252 | 28223 ft | 451 kts | 194° |
| 2026-05-04 16:07 | 33.79460 | -97.68160 | 26609 ft | 432 kts | 194° |
| 2026-05-04 16:08 | 33.76544 | -97.68435 | 26184 ft | 410 kts | 194° |
| 2026-05-04 16:08 | 33.68324 | -97.68936 | 24189 ft | 392 kts | 181° |
| 2026-05-04 16:09 | 33.63135 | -97.66768 | 22619 ft | 398 kts | 156° |
| 2026-05-04 16:09 | 33.58432 | -97.63519 | 21037 ft | 387 kts | 155° |
| 2026-05-04 16:10 | 33.53852 | -97.60304 | 19544 ft | 375 kts | 154° |
| 2026-05-04 16:11 | 33.47240 | -97.55676 | 17289 ft | 359 kts | 154° |
| 2026-05-04 16:11 | 33.45062 | -97.54160 | 16481 ft | 355 kts | 154° |
| 2026-05-04 16:12 | 33.38806 | -97.49800 | 14192 ft | 342 kts | 153° |
| 2026-05-04 16:12 | 33.32763 | -97.45589 | 11989 ft | 326 kts | 153° |
| 2026-05-04 16:13 | 33.28928 | -97.42922 | 10612 ft | 314 kts | 153° |
| 2026-05-04 16:13 | 33.25226 | -97.40349 | 9240 ft | 302 kts | 153° |
| 2026-05-04 16:14 | 33.21628 | -97.37855 | 7783 ft | 293 kts | 154° |
| 2026-05-04 16:14 | 33.18057 | -97.35860 | 6414 ft | 276 kts | 167° |
| 2026-05-04 16:15 | 33.12610 | -97.34595 | 4363 ft | 256 kts | 175° |
| 2026-05-04 16:16 | 33.09261 | -97.33921 | 3262 ft | 222 kts | 175° |
| 2026-05-04 16:16 | 33.05310 | -97.33121 | 1718 ft | 173 kts | 173° |
| 2026-05-04 16:17 | 33.03214 | -97.32701 | 1285 ft | 136 kts | 174° |
| 2026-05-04 16:18 | 33.00582 | -97.32153 | 779 ft | 126 kts | 173° |
| 2026-05-04 16:18 | 32.99856 | -97.32011 | 730 ft | 67 kts | 171° |
| 2026-05-04 16:19 | 32.99241 | -97.31818 | 718 ft | 13 kts | 82° |
| 2026-05-04 16:19 | 32.99290 | -97.31566 | 718 ft | 20 kts | 50° |
| 2026-05-04 16:20 | 32.99581 | -97.31601 | 725 ft | 25 kts | 347° |
| 2026-05-04 16:20 | 32.99695 | -97.31387 | 723 ft | 18 kts | 83° |
| 2026-05-04 16:21 | 32.99770 | -97.31306 | 721 ft | 4 kts | 347° |
| 2026-05-04 16:22 | 32.99780 | -97.31308 | 720 ft | 0 kts | 351° |